sensor_id;sensor_type;location;lat;lon;timestamp;P1;durP1;ratioP1;P2;durP2;ratioP2
27566;SDS011;15006;48.584;9.186;2023-12-14T00:00:30;2.58;;;2.47;;
27566;SDS011;15006;48.584;9.186;2023-12-14T00:02:56;2.10;;;2.00;;
27566;SDS011;15006;48.584;9.186;2023-12-14T00:05:23;4.07;;;2.30;;
27566;SDS011;15006;48.584;9.186;2023-12-14T00:07:49;2.22;;;2.13;;
27566;SDS011;15006;48.584;9.186;2023-12-14T00:10:14;2.45;;;2.35;;
27566;SDS011;15006;48.584;9.186;2023-12-14T00:12:43;2.20;;;2.10;;
27566;SDS011;15006;48.584;9.186;2023-12-14T00:15:09;2.45;;;1.75;;
27566;SDS011;15006;48.584;9.186;2023-12-14T00:17:36;1.90;;;1.80;;
27566;SDS011;15006;48.584;9.186;2023-12-14T00:20:02;1.73;;;1.63;;
27566;SDS011;15006;48.584;9.186;2023-12-14T00:22:29;1.80;;;1.70;;
27566;SDS011;15006;48.584;9.186;2023-12-14T00:24:55;1.40;;;1.40;;
27566;SDS011;15006;48.584;9.186;2023-12-14T00:27:20;1.20;;;1.20;;
27566;SDS011;15006;48.584;9.186;2023-12-14T00:29:46;2.38;;;1.30;;
27566;SDS011;15006;48.584;9.186;2023-12-14T00:32:12;1.40;;;1.30;;
27566;SDS011;15006;48.584;9.186;2023-12-14T00:34:38;2.55;;;1.20;;
27566;SDS011;15006;48.584;9.186;2023-12-14T00:37:05;1.35;;;1.15;;
27566;SDS011;15006;48.584;9.186;2023-12-14T00:39:31;1.58;;;1.20;;
27566;SDS011;15006;48.584;9.186;2023-12-14T00:41:57;0.90;;;0.90;;
27566;SDS011;15006;48.584;9.186;2023-12-14T00:44:23;1.42;;;1.30;;
27566;SDS011;15006;48.584;9.186;2023-12-14T00:46:49;1.20;;;1.10;;
27566;SDS011;15006;48.584;9.186;2023-12-14T00:49:15;1.70;;;1.25;;
27566;SDS011;15006;48.584;9.186;2023-12-14T00:51:43;1.00;;;1.00;;
27566;SDS011;15006;48.584;9.186;2023-12-14T00:54:09;1.30;;;1.20;;
27566;SDS011;15006;48.584;9.186;2023-12-14T00:56:35;3.28;;;1.25;;
27566;SDS011;15006;48.584;9.186;2023-12-14T00:59:01;1.25;;;1.25;;
27566;SDS011;15006;48.584;9.186;2023-12-14T01:01:27;1.33;;;1.30;;
27566;SDS011;15006;48.584;9.186;2023-12-14T01:03:53;4.55;;;1.52;;
27566;SDS011;15006;48.584;9.186;2023-12-14T01:06:19;1.98;;;1.88;;
27566;SDS011;15006;48.584;9.186;2023-12-14T01:08:45;2.00;;;1.90;;
27566;SDS011;15006;48.584;9.186;2023-12-14T01:11:10;2.50;;;2.08;;
27566;SDS011;15006;48.584;9.186;2023-12-14T01:13:36;2.20;;;2.10;;
27566;SDS011;15006;48.584;9.186;2023-12-14T01:16:02;2.40;;;2.30;;
27566;SDS011;15006;48.584;9.186;2023-12-14T01:18:29;2.38;;;2.17;;
27566;SDS011;15006;48.584;9.186;2023-12-14T01:20:55;2.60;;;2.50;;
27566;SDS011;15006;48.584;9.186;2023-12-14T01:23:20;3.13;;;2.80;;
27566;SDS011;15006;48.584;9.186;2023-12-14T01:25:46;2.70;;;2.60;;
27566;SDS011;15006;48.584;9.186;2023-12-14T01:28:12;2.58;;;2.47;;
27566;SDS011;15006;48.584;9.186;2023-12-14T01:30:39;2.83;;;2.65;;
27566;SDS011;15006;48.584;9.186;2023-12-14T01:33:05;3.55;;;2.95;;
27566;SDS011;15006;48.584;9.186;2023-12-14T01:35:31;6.68;;;2.25;;
27566;SDS011;15006;48.584;9.186;2023-12-14T01:37:57;2.60;;;2.50;;
27566;SDS011;15006;48.584;9.186;2023-12-14T01:40:23;2.88;;;2.67;;
27566;SDS011;15006;48.584;9.186;2023-12-14T01:42:48;3.38;;;3.13;;
27566;SDS011;15006;48.584;9.186;2023-12-14T01:45:15;3.08;;;2.90;;
27566;SDS011;15006;48.584;9.186;2023-12-14T01:47:42;2.90;;;2.80;;
27566;SDS011;15006;48.584;9.186;2023-12-14T01:50:08;3.00;;;2.90;;
27566;SDS011;15006;48.584;9.186;2023-12-14T01:52:35;5.53;;;3.35;;
27566;SDS011;15006;48.584;9.186;2023-12-14T01:55:00;2.95;;;2.75;;
27566;SDS011;15006;48.584;9.186;2023-12-14T01:57:27;3.10;;;2.90;;
27566;SDS011;15006;48.584;9.186;2023-12-14T01:59:54;3.00;;;2.80;;
27566;SDS011;15006;48.584;9.186;2023-12-14T02:02:19;2.83;;;2.72;;
27566;SDS011;15006;48.584;9.186;2023-12-14T02:04:45;2.72;;;2.63;;
27566;SDS011;15006;48.584;9.186;2023-12-14T02:07:12;3.28;;;3.00;;
27566;SDS011;15006;48.584;9.186;2023-12-14T02:09:38;2.97;;;2.78;;
27566;SDS011;15006;48.584;9.186;2023-12-14T02:12:04;3.10;;;2.85;;
27566;SDS011;15006;48.584;9.186;2023-12-14T02:14:31;3.50;;;3.30;;
27566;SDS011;15006;48.584;9.186;2023-12-14T02:16:57;3.30;;;3.10;;
27566;SDS011;15006;48.584;9.186;2023-12-14T02:19:23;3.28;;;3.08;;
27566;SDS011;15006;48.584;9.186;2023-12-14T02:21:49;3.63;;;3.42;;
27566;SDS011;15006;48.584;9.186;2023-12-14T02:24:15;3.35;;;3.08;;
27566;SDS011;15006;48.584;9.186;2023-12-14T02:26:41;3.20;;;3.10;;
27566;SDS011;15006;48.584;9.186;2023-12-14T02:29:06;3.90;;;3.60;;
27566;SDS011;15006;48.584;9.186;2023-12-14T02:31:33;4.13;;;3.50;;
27566;SDS011;15006;48.584;9.186;2023-12-14T02:33:58;5.57;;;3.55;;
27566;SDS011;15006;48.584;9.186;2023-12-14T02:36:24;3.90;;;3.60;;
27566;SDS011;15006;48.584;9.186;2023-12-14T02:38:50;4.50;;;4.10;;
27566;SDS011;15006;48.584;9.186;2023-12-14T02:41:16;4.35;;;4.15;;
27566;SDS011;15006;48.584;9.186;2023-12-14T02:43:42;4.18;;;3.88;;
27566;SDS011;15006;48.584;9.186;2023-12-14T02:46:08;4.00;;;3.80;;
27566;SDS011;15006;48.584;9.186;2023-12-14T02:48:37;4.45;;;4.10;;
27566;SDS011;15006;48.584;9.186;2023-12-14T02:51:03;4.90;;;4.10;;
27566;SDS011;15006;48.584;9.186;2023-12-14T02:53:29;4.93;;;4.60;;
27566;SDS011;15006;48.584;9.186;2023-12-14T02:55:55;4.53;;;4.22;;
27566;SDS011;15006;48.584;9.186;2023-12-14T02:58:21;5.43;;;4.97;;
27566;SDS011;15006;48.584;9.186;2023-12-14T03:00:47;4.78;;;4.50;;
27566;SDS011;15006;48.584;9.186;2023-12-14T03:03:13;4.75;;;4.45;;
27566;SDS011;15006;48.584;9.186;2023-12-14T03:05:39;4.40;;;4.10;;
27566;SDS011;15006;48.584;9.186;2023-12-14T03:08:05;4.70;;;4.40;;
27566;SDS011;15006;48.584;9.186;2023-12-14T03:10:31;5.00;;;4.70;;
27566;SDS011;15006;48.584;9.186;2023-12-14T03:12:56;6.97;;;4.30;;
27566;SDS011;15006;48.584;9.186;2023-12-14T03:15:23;4.75;;;4.45;;
27566;SDS011;15006;48.584;9.186;2023-12-14T03:17:49;4.45;;;4.15;;
27566;SDS011;15006;48.584;9.186;2023-12-14T03:20:15;7.20;;;4.68;;
27566;SDS011;15006;48.584;9.186;2023-12-14T03:22:41;4.78;;;4.47;;
27566;SDS011;15006;48.584;9.186;2023-12-14T03:25:07;4.53;;;4.22;;
27566;SDS011;15006;48.584;9.186;2023-12-14T03:27:35;4.75;;;4.45;;
27566;SDS011;15006;48.584;9.186;2023-12-14T03:30:01;4.30;;;4.10;;
27566;SDS011;15006;48.584;9.186;2023-12-14T03:32:28;7.65;;;4.25;;
27566;SDS011;15006;48.584;9.186;2023-12-14T03:34:54;4.93;;;4.53;;
27566;SDS011;15006;48.584;9.186;2023-12-14T03:37:20;4.93;;;3.95;;
27566;SDS011;15006;48.584;9.186;2023-12-14T03:39:47;4.47;;;4.20;;
27566;SDS011;15006;48.584;9.186;2023-12-14T03:42:13;4.40;;;4.00;;
27566;SDS011;15006;48.584;9.186;2023-12-14T03:44:41;4.40;;;4.20;;
27566;SDS011;15006;48.584;9.186;2023-12-14T03:47:07;4.45;;;4.25;;
27566;SDS011;15006;48.584;9.186;2023-12-14T03:49:36;4.78;;;4.45;;
27566;SDS011;15006;48.584;9.186;2023-12-14T03:52:03;4.75;;;4.45;;
27566;SDS011;15006;48.584;9.186;2023-12-14T03:54:30;4.90;;;4.60;;
27566;SDS011;15006;48.584;9.186;2023-12-14T03:56:56;4.80;;;4.50;;
27566;SDS011;15006;48.584;9.186;2023-12-14T03:59:21;5.15;;;4.78;;
27566;SDS011;15006;48.584;9.186;2023-12-14T04:01:47;5.03;;;4.63;;
27566;SDS011;15006;48.584;9.186;2023-12-14T04:04:14;6.63;;;5.20;;
27566;SDS011;15006;48.584;9.186;2023-12-14T04:06:40;5.45;;;5.10;;
27566;SDS011;15006;48.584;9.186;2023-12-14T04:09:05;6.15;;;5.65;;
27566;SDS011;15006;48.584;9.186;2023-12-14T04:11:31;5.40;;;5.10;;
27566;SDS011;15006;48.584;9.186;2023-12-14T04:13:58;5.55;;;5.10;;
27566;SDS011;15006;48.584;9.186;2023-12-14T04:16:24;5.97;;;5.13;;
27566;SDS011;15006;48.584;9.186;2023-12-14T04:18:50;7.88;;;5.15;;
27566;SDS011;15006;48.584;9.186;2023-12-14T04:21:16;5.30;;;5.00;;
27566;SDS011;15006;48.584;9.186;2023-12-14T04:23:42;9.90;;;5.05;;
27566;SDS011;15006;48.584;9.186;2023-12-14T04:26:08;5.00;;;4.70;;
27566;SDS011;15006;48.584;9.186;2023-12-14T04:28:35;5.10;;;4.43;;
27566;SDS011;15006;48.584;9.186;2023-12-14T04:31:01;3.92;;;3.67;;
27566;SDS011;15006;48.584;9.186;2023-12-14T04:33:27;3.90;;;3.50;;
27566;SDS011;15006;48.584;9.186;2023-12-14T04:35:53;3.85;;;3.55;;
27566;SDS011;15006;48.584;9.186;2023-12-14T04:38:19;3.67;;;3.38;;
27566;SDS011;15006;48.584;9.186;2023-12-14T04:40:45;3.30;;;3.10;;
27566;SDS011;15006;48.584;9.186;2023-12-14T04:43:11;3.70;;;3.40;;
27566;SDS011;15006;48.584;9.186;2023-12-14T04:45:37;3.70;;;3.40;;
27566;SDS011;15006;48.584;9.186;2023-12-14T04:48:03;3.88;;;3.45;;
27566;SDS011;15006;48.584;9.186;2023-12-14T04:50:29;3.60;;;3.30;;
27566;SDS011;15006;48.584;9.186;2023-12-14T04:52:55;3.95;;;3.75;;
27566;SDS011;15006;48.584;9.186;2023-12-14T04:55:21;3.42;;;3.30;;
27566;SDS011;15006;48.584;9.186;2023-12-14T04:57:47;4.35;;;3.72;;
27566;SDS011;15006;48.584;9.186;2023-12-14T05:00:14;3.90;;;3.60;;
27566;SDS011;15006;48.584;9.186;2023-12-14T05:02:40;3.95;;;3.67;;
27566;SDS011;15006;48.584;9.186;2023-12-14T05:05:06;4.15;;;3.80;;
27566;SDS011;15006;48.584;9.186;2023-12-14T05:07:32;5.57;;;4.10;;
27566;SDS011;15006;48.584;9.186;2023-12-14T05:09:58;4.47;;;3.95;;
27566;SDS011;15006;48.584;9.186;2023-12-14T05:12:24;3.83;;;3.60;;
27566;SDS011;15006;48.584;9.186;2023-12-14T05:14:52;3.90;;;3.70;;
27566;SDS011;15006;48.584;9.186;2023-12-14T05:17:18;3.40;;;3.20;;
27566;SDS011;15006;48.584;9.186;2023-12-14T05:19:44;4.50;;;4.20;;
27566;SDS011;15006;48.584;9.186;2023-12-14T05:22:11;3.47;;;3.28;;
27566;SDS011;15006;48.584;9.186;2023-12-14T05:24:37;5.18;;;3.78;;
27566;SDS011;15006;48.584;9.186;2023-12-14T05:27:04;3.80;;;3.55;;
27566;SDS011;15006;48.584;9.186;2023-12-14T05:29:30;4.13;;;3.85;;
27566;SDS011;15006;48.584;9.186;2023-12-14T05:31:58;4.97;;;3.75;;
27566;SDS011;15006;48.584;9.186;2023-12-14T05:34:24;3.67;;;3.47;;
27566;SDS011;15006;48.584;9.186;2023-12-14T05:36:50;4.15;;;3.85;;
27566;SDS011;15006;48.584;9.186;2023-12-14T05:39:16;4.40;;;4.00;;
27566;SDS011;15006;48.584;9.186;2023-12-14T05:41:42;4.20;;;3.90;;
27566;SDS011;15006;48.584;9.186;2023-12-14T05:44:08;4.70;;;4.40;;
27566;SDS011;15006;48.584;9.186;2023-12-14T05:46:34;4.93;;;4.53;;
27566;SDS011;15006;48.584;9.186;2023-12-14T05:49:01;4.22;;;3.97;;
27566;SDS011;15006;48.584;9.186;2023-12-14T05:51:28;4.68;;;4.28;;
27566;SDS011;15006;48.584;9.186;2023-12-14T05:53:55;4.28;;;4.00;;
27566;SDS011;15006;48.584;9.186;2023-12-14T05:56:22;4.43;;;4.10;;
27566;SDS011;15006;48.584;9.186;2023-12-14T05:58:48;4.38;;;4.13;;
27566;SDS011;15006;48.584;9.186;2023-12-14T06:01:16;4.60;;;4.25;;
27566;SDS011;15006;48.584;9.186;2023-12-14T06:03:43;4.25;;;3.85;;
27566;SDS011;15006;48.584;9.186;2023-12-14T06:06:10;4.03;;;3.75;;
27566;SDS011;15006;48.584;9.186;2023-12-14T06:08:39;23.13;;;17.92;;
27566;SDS011;15006;48.584;9.186;2023-12-14T06:11:05;5.25;;;4.95;;
27566;SDS011;15006;48.584;9.186;2023-12-14T06:13:31;5.75;;;5.28;;
27566;SDS011;15006;48.584;9.186;2023-12-14T06:15:58;7.72;;;7.03;;
27566;SDS011;15006;48.584;9.186;2023-12-14T06:18:24;6.30;;;5.80;;
27566;SDS011;15006;48.584;9.186;2023-12-14T06:20:51;6.00;;;5.20;;
27566;SDS011;15006;48.584;9.186;2023-12-14T06:23:17;5.68;;;5.28;;
27566;SDS011;15006;48.584;9.186;2023-12-14T06:25:43;8.95;;;6.82;;
27566;SDS011;15006;48.584;9.186;2023-12-14T06:28:09;7.80;;;7.18;;
27566;SDS011;15006;48.584;9.186;2023-12-14T06:30:35;8.68;;;7.88;;
27566;SDS011;15006;48.584;9.186;2023-12-14T06:33:01;9.52;;;8.20;;
27566;SDS011;15006;48.584;9.186;2023-12-14T06:35:27;8.10;;;7.40;;
27566;SDS011;15006;48.584;9.186;2023-12-14T06:37:53;7.95;;;7.28;;
27566;SDS011;15006;48.584;9.186;2023-12-14T06:40:19;5.93;;;5.53;;
27566;SDS011;15006;48.584;9.186;2023-12-14T06:42:45;6.53;;;5.63;;
27566;SDS011;15006;48.584;9.186;2023-12-14T06:45:11;5.90;;;5.50;;
27566;SDS011;15006;48.584;9.186;2023-12-14T06:47:37;6.00;;;5.53;;
27566;SDS011;15006;48.584;9.186;2023-12-14T06:50:03;5.30;;;4.93;;
27566;SDS011;15006;48.584;9.186;2023-12-14T06:52:30;4.95;;;4.65;;
27566;SDS011;15006;48.584;9.186;2023-12-14T06:54:56;6.13;;;4.78;;
27566;SDS011;15006;48.584;9.186;2023-12-14T06:57:22;5.60;;;5.20;;
27566;SDS011;15006;48.584;9.186;2023-12-14T06:59:48;5.10;;;4.60;;
27566;SDS011;15006;48.584;9.186;2023-12-14T07:02:14;5.38;;;4.90;;
27566;SDS011;15006;48.584;9.186;2023-12-14T07:04:40;5.07;;;4.53;;
27566;SDS011;15006;48.584;9.186;2023-12-14T07:07:06;4.78;;;4.47;;
27566;SDS011;15006;48.584;9.186;2023-12-14T07:09:32;5.40;;;5.00;;
27566;SDS011;15006;48.584;9.186;2023-12-14T07:11:58;6.22;;;5.82;;
27566;SDS011;15006;48.584;9.186;2023-12-14T07:14:26;5.70;;;5.20;;
27566;SDS011;15006;48.584;9.186;2023-12-14T07:16:52;5.47;;;5.18;;
27566;SDS011;15006;48.584;9.186;2023-12-14T07:19:18;7.03;;;6.43;;
27566;SDS011;15006;48.584;9.186;2023-12-14T07:21:44;9.32;;;8.32;;
27566;SDS011;15006;48.584;9.186;2023-12-14T07:24:10;10.48;;;9.40;;
27566;SDS011;15006;48.584;9.186;2023-12-14T07:26:36;9.45;;;8.65;;
27566;SDS011;15006;48.584;9.186;2023-12-14T07:29:02;9.18;;;8.48;;
27566;SDS011;15006;48.584;9.186;2023-12-14T07:31:28;8.23;;;7.30;;
27566;SDS011;15006;48.584;9.186;2023-12-14T07:33:55;8.40;;;7.25;;
27566;SDS011;15006;48.584;9.186;2023-12-14T07:36:21;7.88;;;7.25;;
27566;SDS011;15006;48.584;9.186;2023-12-14T07:38:48;9.85;;;6.43;;
27566;SDS011;15006;48.584;9.186;2023-12-14T07:41:13;6.55;;;6.07;;
27566;SDS011;15006;48.584;9.186;2023-12-14T07:43:40;6.38;;;5.88;;
27566;SDS011;15006;48.584;9.186;2023-12-14T07:46:06;9.00;;;6.65;;
27566;SDS011;15006;48.584;9.186;2023-12-14T07:48:32;10.15;;;7.78;;
27566;SDS011;15006;48.584;9.186;2023-12-14T07:50:58;7.40;;;6.80;;
27566;SDS011;15006;48.584;9.186;2023-12-14T07:53:23;6.40;;;6.00;;
27566;SDS011;15006;48.584;9.186;2023-12-14T07:55:50;6.18;;;5.68;;
27566;SDS011;15006;48.584;9.186;2023-12-14T07:58:16;6.30;;;5.88;;
27566;SDS011;15006;48.584;9.186;2023-12-14T08:00:41;15.38;;;8.55;;
27566;SDS011;15006;48.584;9.186;2023-12-14T08:03:07;9.35;;;8.55;;
27566;SDS011;15006;48.584;9.186;2023-12-14T08:05:33;11.70;;;9.85;;
27566;SDS011;15006;48.584;9.186;2023-12-14T08:07:59;10.70;;;8.63;;
27566;SDS011;15006;48.584;9.186;2023-12-14T08:10:25;8.93;;;8.13;;
27566;SDS011;15006;48.584;9.186;2023-12-14T08:12:51;8.90;;;8.20;;
27566;SDS011;15006;48.584;9.186;2023-12-14T08:15:17;8.45;;;7.75;;
27566;SDS011;15006;48.584;9.186;2023-12-14T08:17:43;9.52;;;8.63;;
27566;SDS011;15006;48.584;9.186;2023-12-14T08:20:09;9.57;;;8.07;;
27566;SDS011;15006;48.584;9.186;2023-12-14T08:22:37;13.73;;;12.10;;
27566;SDS011;15006;48.584;9.186;2023-12-14T08:25:10;15.27;;;12.75;;
27566;SDS011;15006;48.584;9.186;2023-12-14T08:27:40;14.60;;;12.27;;
27566;SDS011;15006;48.584;9.186;2023-12-14T08:30:07;14.48;;;11.73;;
27566;SDS011;15006;48.584;9.186;2023-12-14T08:32:34;13.70;;;11.77;;
27566;SDS011;15006;48.584;9.186;2023-12-14T08:35:00;14.80;;;11.27;;
27566;SDS011;15006;48.584;9.186;2023-12-14T08:37:26;13.55;;;11.82;;
27566;SDS011;15006;48.584;9.186;2023-12-14T08:39:52;13.80;;;12.45;;
27566;SDS011;15006;48.584;9.186;2023-12-14T08:42:18;13.90;;;12.43;;
27566;SDS011;15006;48.584;9.186;2023-12-14T08:44:44;15.13;;;13.52;;
27566;SDS011;15006;48.584;9.186;2023-12-14T08:47:10;14.68;;;13.20;;
27566;SDS011;15006;48.584;9.186;2023-12-14T08:49:36;12.82;;;11.63;;
27566;SDS011;15006;48.584;9.186;2023-12-14T08:52:02;12.82;;;11.55;;
27566;SDS011;15006;48.584;9.186;2023-12-14T08:54:29;12.43;;;11.15;;
27566;SDS011;15006;48.584;9.186;2023-12-14T08:56:55;11.55;;;10.20;;
27566;SDS011;15006;48.584;9.186;2023-12-14T08:59:21;13.95;;;11.55;;
27566;SDS011;15006;48.584;9.186;2023-12-14T09:01:47;15.68;;;12.07;;
27566;SDS011;15006;48.584;9.186;2023-12-14T09:04:13;11.90;;;10.85;;
27566;SDS011;15006;48.584;9.186;2023-12-14T09:06:39;11.10;;;9.95;;
27566;SDS011;15006;48.584;9.186;2023-12-14T09:09:07;10.93;;;9.93;;
27566;SDS011;15006;48.584;9.186;2023-12-14T09:11:33;11.40;;;10.30;;
27566;SDS011;15006;48.584;9.186;2023-12-14T09:14:02;11.65;;;10.23;;
27566;SDS011;15006;48.584;9.186;2023-12-14T09:16:28;11.65;;;10.30;;
27566;SDS011;15006;48.584;9.186;2023-12-14T09:18:54;10.48;;;9.60;;
27566;SDS011;15006;48.584;9.186;2023-12-14T09:21:20;10.50;;;9.40;;
27566;SDS011;15006;48.584;9.186;2023-12-14T09:23:46;9.88;;;8.98;;
27566;SDS011;15006;48.584;9.186;2023-12-14T09:26:14;10.43;;;8.93;;
27566;SDS011;15006;48.584;9.186;2023-12-14T09:28:39;8.52;;;7.82;;
27566;SDS011;15006;48.584;9.186;2023-12-14T09:31:06;8.25;;;7.45;;
27566;SDS011;15006;48.584;9.186;2023-12-14T09:33:32;8.00;;;7.30;;
27566;SDS011;15006;48.584;9.186;2023-12-14T09:35:58;7.22;;;6.72;;
27566;SDS011;15006;48.584;9.186;2023-12-14T09:38:24;7.20;;;6.45;;
27566;SDS011;15006;48.584;9.186;2023-12-14T09:40:50;6.75;;;6.25;;
27566;SDS011;15006;48.584;9.186;2023-12-14T09:43:16;6.18;;;5.78;;
27566;SDS011;15006;48.584;9.186;2023-12-14T09:45:42;7.85;;;6.20;;
27566;SDS011;15006;48.584;9.186;2023-12-14T09:48:10;5.85;;;5.30;;
27566;SDS011;15006;48.584;9.186;2023-12-14T09:50:41;8.77;;;5.15;;
27566;SDS011;15006;48.584;9.186;2023-12-14T09:53:10;5.72;;;5.15;;
27566;SDS011;15006;48.584;9.186;2023-12-14T09:55:36;5.07;;;4.57;;
27566;SDS011;15006;48.584;9.186;2023-12-14T09:58:02;5.15;;;4.75;;
27566;SDS011;15006;48.584;9.186;2023-12-14T10:00:38;5.50;;;4.80;;
27566;SDS011;15006;48.584;9.186;2023-12-14T10:03:22;4.10;;;3.80;;
27566;SDS011;15006;48.584;9.186;2023-12-14T10:05:51;4.10;;;3.90;;
27566;SDS011;15006;48.584;9.186;2023-12-14T10:08:21;3.78;;;3.58;;
27566;SDS011;15006;48.584;9.186;2023-12-14T10:10:48;4.15;;;3.85;;
27566;SDS011;15006;48.584;9.186;2023-12-14T10:13:18;4.07;;;3.87;;
27566;SDS011;15006;48.584;9.186;2023-12-14T10:15:46;3.83;;;3.63;;
27566;SDS011;15006;48.584;9.186;2023-12-14T10:18:23;4.15;;;3.72;;
27566;SDS011;15006;48.584;9.186;2023-12-14T10:20:50;3.70;;;3.50;;
27566;SDS011;15006;48.584;9.186;2023-12-14T10:23:16;3.80;;;3.50;;
27566;SDS011;15006;48.584;9.186;2023-12-14T10:25:43;3.83;;;3.58;;
27566;SDS011;15006;48.584;9.186;2023-12-14T10:28:12;3.38;;;3.10;;
27566;SDS011;15006;48.584;9.186;2023-12-14T10:30:39;3.08;;;2.65;;
27566;SDS011;15006;48.584;9.186;2023-12-14T10:33:06;4.60;;;4.20;;
27566;SDS011;15006;48.584;9.186;2023-12-14T10:35:32;4.47;;;4.18;;
27566;SDS011;15006;48.584;9.186;2023-12-14T10:37:58;5.75;;;5.10;;
27566;SDS011;15006;48.584;9.186;2023-12-14T10:40:29;5.10;;;4.70;;
27566;SDS011;15006;48.584;9.186;2023-12-14T10:42:58;4.22;;;3.90;;
27566;SDS011;15006;48.584;9.186;2023-12-14T10:45:29;5.50;;;4.50;;
27566;SDS011;15006;48.584;9.186;2023-12-14T10:47:58;4.28;;;3.72;;
27566;SDS011;15006;48.584;9.186;2023-12-14T10:50:28;3.78;;;3.50;;
27566;SDS011;15006;48.584;9.186;2023-12-14T10:52:56;3.95;;;3.17;;
27566;SDS011;15006;48.584;9.186;2023-12-14T10:58:08;3.80;;;3.50;;
27566;SDS011;15006;48.584;9.186;2023-12-14T11:00:36;2.92;;;2.78;;
27566;SDS011;15006;48.584;9.186;2023-12-14T11:03:06;2.25;;;2.15;;
27566;SDS011;15006;48.584;9.186;2023-12-14T11:05:35;2.42;;;2.28;;
27566;SDS011;15006;48.584;9.186;2023-12-14T11:08:02;2.90;;;2.70;;
27566;SDS011;15006;48.584;9.186;2023-12-14T11:13:08;2.92;;;2.72;;
27566;SDS011;15006;48.584;9.186;2023-12-14T11:15:37;2.75;;;2.55;;
27566;SDS011;15006;48.584;9.186;2023-12-14T11:23:11;2.10;;;2.00;;
27566;SDS011;15006;48.584;9.186;2023-12-14T11:26:03;2.50;;;2.30;;
27566;SDS011;15006;48.584;9.186;2023-12-14T11:28:32;2.30;;;2.10;;
27566;SDS011;15006;48.584;9.186;2023-12-14T11:31:03;2.78;;;1.63;;
27566;SDS011;15006;48.584;9.186;2023-12-14T11:33:32;2.65;;;1.80;;
27566;SDS011;15006;48.584;9.186;2023-12-14T11:36:01;2.92;;;1.73;;
27566;SDS011;15006;48.584;9.186;2023-12-14T11:38:31;3.10;;;1.90;;
27566;SDS011;15006;48.584;9.186;2023-12-14T11:40:58;1.83;;;1.73;;
27566;SDS011;15006;48.584;9.186;2023-12-14T11:43:25;2.33;;;2.20;;
27566;SDS011;15006;48.584;9.186;2023-12-14T11:45:51;2.53;;;2.33;;
27566;SDS011;15006;48.584;9.186;2023-12-14T11:48:19;2.22;;;2.10;;
27566;SDS011;15006;48.584;9.186;2023-12-14T11:50:46;2.45;;;2.30;;
27566;SDS011;15006;48.584;9.186;2023-12-14T11:53:12;2.65;;;2.45;;
27566;SDS011;15006;48.584;9.186;2023-12-14T11:55:39;2.55;;;2.40;;
27566;SDS011;15006;48.584;9.186;2023-12-14T11:58:07;2.92;;;2.83;;
27566;SDS011;15006;48.584;9.186;2023-12-14T12:00:35;3.50;;;3.20;;
27566;SDS011;15006;48.584;9.186;2023-12-14T12:03:13;6.72;;;3.80;;
27566;SDS011;15006;48.584;9.186;2023-12-14T12:05:45;3.50;;;3.30;;
27566;SDS011;15006;48.584;9.186;2023-12-14T12:08:13;4.57;;;4.28;;
27566;SDS011;15006;48.584;9.186;2023-12-14T12:10:41;4.10;;;3.60;;
27566;SDS011;15006;48.584;9.186;2023-12-14T12:13:15;4.13;;;3.78;;
27566;SDS011;15006;48.584;9.186;2023-12-14T12:15:43;4.07;;;3.78;;
27566;SDS011;15006;48.584;9.186;2023-12-14T12:18:11;3.63;;;3.35;;
27566;SDS011;15006;48.584;9.186;2023-12-14T12:20:38;4.10;;;3.70;;
27566;SDS011;15006;48.584;9.186;2023-12-14T12:23:05;5.10;;;3.00;;
27566;SDS011;15006;48.584;9.186;2023-12-14T12:25:31;2.70;;;2.50;;
27566;SDS011;15006;48.584;9.186;2023-12-14T12:27:58;2.85;;;2.58;;
27566;SDS011;15006;48.584;9.186;2023-12-14T12:30:26;2.28;;;2.17;;
27566;SDS011;15006;48.584;9.186;2023-12-14T12:32:53;2.58;;;2.20;;
27566;SDS011;15006;48.584;9.186;2023-12-14T12:35:21;3.10;;;2.90;;
27566;SDS011;15006;48.584;9.186;2023-12-14T12:37:48;3.20;;;2.40;;
27566;SDS011;15006;48.584;9.186;2023-12-14T12:40:19;2.83;;;2.63;;
27566;SDS011;15006;48.584;9.186;2023-12-14T12:42:46;4.10;;;3.03;;
27566;SDS011;15006;48.584;9.186;2023-12-14T12:45:14;2.70;;;2.50;;
27566;SDS011;15006;48.584;9.186;2023-12-14T12:47:44;3.20;;;2.60;;
27566;SDS011;15006;48.584;9.186;2023-12-14T12:50:11;2.40;;;2.15;;
27566;SDS011;15006;48.584;9.186;2023-12-14T12:52:37;2.85;;;2.17;;
27566;SDS011;15006;48.584;9.186;2023-12-14T12:55:06;2.92;;;2.20;;
27566;SDS011;15006;48.584;9.186;2023-12-14T12:57:33;2.63;;;2.53;;
27566;SDS011;15006;48.584;9.186;2023-12-14T12:59:59;3.13;;;2.30;;
27566;SDS011;15006;48.584;9.186;2023-12-14T13:02:25;2.38;;;2.13;;
27566;SDS011;15006;48.584;9.186;2023-12-14T13:04:51;2.63;;;2.42;;
27566;SDS011;15006;48.584;9.186;2023-12-14T13:07:17;2.50;;;2.40;;
27566;SDS011;15006;48.584;9.186;2023-12-14T13:09:43;2.63;;;2.30;;
27566;SDS011;15006;48.584;9.186;2023-12-14T13:12:09;2.70;;;2.50;;
27566;SDS011;15006;48.584;9.186;2023-12-14T13:14:36;2.92;;;2.72;;
27566;SDS011;15006;48.584;9.186;2023-12-14T13:17:02;2.70;;;2.50;;
27566;SDS011;15006;48.584;9.186;2023-12-14T13:19:28;2.95;;;2.72;;
27566;SDS011;15006;48.584;9.186;2023-12-14T13:21:54;3.10;;;2.58;;
27566;SDS011;15006;48.584;9.186;2023-12-14T13:24:23;2.42;;;2.30;;
27566;SDS011;15006;48.584;9.186;2023-12-14T13:26:49;2.30;;;2.20;;
27566;SDS011;15006;48.584;9.186;2023-12-14T13:29:15;2.50;;;2.40;;
27566;SDS011;15006;48.584;9.186;2023-12-14T13:31:41;2.72;;;2.53;;
27566;SDS011;15006;48.584;9.186;2023-12-14T13:34:07;3.00;;;2.80;;
27566;SDS011;15006;48.584;9.186;2023-12-14T13:36:33;3.40;;;3.10;;
27566;SDS011;15006;48.584;9.186;2023-12-14T13:39:00;3.20;;;2.95;;
27566;SDS011;15006;48.584;9.186;2023-12-14T13:41:27;3.58;;;3.00;;
27566;SDS011;15006;48.584;9.186;2023-12-14T13:43:53;3.10;;;2.90;;
27566;SDS011;15006;48.584;9.186;2023-12-14T13:46:19;3.00;;;2.80;;
27566;SDS011;15006;48.584;9.186;2023-12-14T13:48:45;2.85;;;2.75;;
27566;SDS011;15006;48.584;9.186;2023-12-14T13:51:11;3.25;;;2.70;;
27566;SDS011;15006;48.584;9.186;2023-12-14T13:53:37;5.68;;;3.10;;
27566;SDS011;15006;48.584;9.186;2023-12-14T13:56:04;3.70;;;3.40;;
27566;SDS011;15006;48.584;9.186;2023-12-14T13:58:30;3.20;;;3.00;;
27566;SDS011;15006;48.584;9.186;2023-12-14T14:00:56;4.00;;;3.42;;
27566;SDS011;15006;48.584;9.186;2023-12-14T14:03:22;3.65;;;3.45;;
27566;SDS011;15006;48.584;9.186;2023-12-14T14:05:48;3.92;;;3.63;;
27566;SDS011;15006;48.584;9.186;2023-12-14T14:08:14;3.58;;;3.38;;
27566;SDS011;15006;48.584;9.186;2023-12-14T14:10:39;3.22;;;3.03;;
27566;SDS011;15006;48.584;9.186;2023-12-14T14:13:05;3.42;;;3.22;;
27566;SDS011;15006;48.584;9.186;2023-12-14T14:15:31;7.65;;;3.55;;
27566;SDS011;15006;48.584;9.186;2023-12-14T14:17:57;3.45;;;2.75;;
27566;SDS011;15006;48.584;9.186;2023-12-14T14:20:23;3.30;;;3.10;;
27566;SDS011;15006;48.584;9.186;2023-12-14T14:22:49;4.07;;;3.88;;
27566;SDS011;15006;48.584;9.186;2023-12-14T14:25:15;4.72;;;4.43;;
27566;SDS011;15006;48.584;9.186;2023-12-14T14:27:41;3.65;;;3.40;;
27566;SDS011;15006;48.584;9.186;2023-12-14T14:30:07;3.38;;;3.17;;
27566;SDS011;15006;48.584;9.186;2023-12-14T14:32:34;3.17;;;2.83;;
27566;SDS011;15006;48.584;9.186;2023-12-14T14:35:03;3.33;;;3.00;;
27566;SDS011;15006;48.584;9.186;2023-12-14T14:37:30;3.65;;;2.97;;
27566;SDS011;15006;48.584;9.186;2023-12-14T14:39:56;3.88;;;3.30;;
27566;SDS011;15006;48.584;9.186;2023-12-14T14:42:22;3.65;;;3.45;;
27566;SDS011;15006;48.584;9.186;2023-12-14T14:44:48;3.15;;;2.95;;
27566;SDS011;15006;48.584;9.186;2023-12-14T14:47:14;4.43;;;3.65;;
27566;SDS011;15006;48.584;9.186;2023-12-14T14:49:40;3.58;;;3.38;;
27566;SDS011;15006;48.584;9.186;2023-12-14T14:52:06;3.40;;;3.20;;